Terminal Aerodrome Forecast
Issued by NWS

Home | Current Version | Previous Version | Graphics & Text | Print | Product List | Glossary On
Versions: 1 2 3 4 5 6 7 8 9 10 11 12 13 14 15 16 17 18 19 20 21 22 23 24
140
FTUS43 KBIS 191006 AAD
TAFDIK
TAF AMD
KDIK 191006Z 1910/2006 07007KT 3SM BR SCT002 OVC110
      TEMPO 1910/1914 1/2SM FZFG BKN002
     FM191400 14004KT P6SM VCFG FEW002 BKN200
     FM191700 16007KT P6SM SCT250
     FM200300 22005KT P6SM BKN150=

USA.gov is the U.S. government's official web portal to all federal, state and local government web resources and services.